Houston, Texas
Traffic Map
Current Weather Conditions
Houston, Texas
Scattered Clouds
Scattered Clouds
68°
Feels Like: 68°
Wind Chill: 68° Ceiling: Unl
Heat Index: 68° Visibility: 10mi
Dew Point: 55° Wind: 10mph
Humidity: 63% Direction: 320° (NW)
Pressure: 30.03in Gusts: 0mph
Raw Report DataKIAH 251353Z 32009KT 10SM FEW016 SCT026 SCT040 20/13 A3003 RMK AO2 SLP168 CB DSNT SE-S T02000128 $
Traffic Incident Summary
Active as of:
Severity:
Category:
InformationThere was an issue retrieving the traffic information for this location. Please try a different location or try again shortly.
Advertisements
Track Severe Weather on mobile